Minhang, China
Current Conditions -  °F | °C
As of 8:30 AM on Thursday 23 Oct 2014 (Local Time) from ZSSS Reporting Station
Haze Haze  
Wind Chill: 68°   Ceiling: Unl
Heat Index: 68°   Visibility: 2.5mi
Dew Point: 57°   Wind: 2mph
Humidity: 68%   Direction: NA
Pressure: 30.21"   Gusts: NA
Location:  31.01°N, 121.41°E
Report Text: ZSSS 230030Z VRB01MPS 4000 BR NSC 20/14 Q1023 NOSIG
Loading
Personal Weather Stations






























Interactive Weather Map
Tropical Storm Tracking
New forecast layout! Learn more

10-Day Weather Forecast

Advertisements
Track Severe Weather on mobile